ETSA

Details ICAO ETSA
Name Landsberg Lech
Region Germany - Military
Timezone Europe/Berlin (UTC+1.0)
Plans Departing 2
Arriving 9
Stats Elevation 2,044 ft / 623 m (AMSL)
Location 48.070500° 10.906000°
Runways 1
Magnetic Variation 2.938° E
Sunrise 2017-12-17 07:02:40 UTC / 2017-12-17 08:02:40 Local
Sunset 2017-12-17 15:25:02 UTC / 2017-12-17 16:25:02 Local
Advertisement - Login to hide

Runways

ID Width Length Bearing (true) Bearing (mag) Surface Threshold Offset Overrun Length
07 98 ft / 30 m 6,746 ft / 2,056 m 72.14° 69.20° Concrete 0 ft / 0 m 318 ft / 97 m
25 98 ft / 30 m 6,746 ft / 2,056 m 252.16° 249.22° Concrete 0 ft / 0 m 289 ft / 88 m

Approach Navaids

Runway Type Ident Frequency Range Bearing (true) Bearing (mag) Slope Elevation
25 Localiser LQ 111.70 MHz 18 nm / 33 km 253.16° 250.22° - 2,047 ft / 624 m (AMSL)
25 Glidescope LQ 111.70 MHz 10 nm / 19 km 252.15° 249.21° 3.00° 2,097 ft / 639 m (AMSL)

Map

Weather


0- 5 10 15 20 25 30 35+ Temperature / ° C

Clouds and Precipitation
Forecast for 2017-12-17 12:00 UTC. Updated an hour ago

Ground ~20,000 ft ~40,000 ft Winds

METAR

ETSA 170920Z AUTO 26010KT 2400 // ////// M00/M02 Q1021 ///

TAF

Not found

Frequencies

Tower 122.10 MHz TWR
Approach 130.50 MHz RADAR
Approach 123.30 MHz RADAR
Warning: Do not use this data for real-world aviation or navigation. No guarantee of current accuracy is given.